sensor_id;sensor_type;location;lat;lon;timestamp;pressure;altitude;pressure_sealevel;temperature;humidity
80976;BME280;70437;49.466;11.002;2024-01-16T00:00:28;97303.13;;;-0.42;100.00
80976;BME280;70437;49.466;11.002;2024-01-16T00:02:57;97297.63;;;-0.32;100.00
80976;BME280;70437;49.466;11.002;2024-01-16T00:05:26;97311.06;;;-0.50;100.00
80976;BME280;70437;49.466;11.002;2024-01-16T00:07:55;97304.75;;;-0.41;100.00
80976;BME280;70437;49.466;11.002;2024-01-16T00:10:27;97308.94;;;-0.55;100.00
80976;BME280;70437;49.466;11.002;2024-01-16T00:12:57;97310.78;;;-0.32;100.00
80976;BME280;70437;49.466;11.002;2024-01-16T00:15:26;97307.28;;;-0.24;100.00
80976;BME280;70437;49.466;11.002;2024-01-16T00:17:55;97309.97;;;-0.33;100.00
80976;BME280;70437;49.466;11.002;2024-01-16T00:20:24;97308.94;;;-0.55;100.00
80976;BME280;70437;49.466;11.002;2024-01-16T00:22:53;97310.59;;;-0.54;100.00
80976;BME280;70437;49.466;11.002;2024-01-16T00:25:23;97311.97;;;-0.35;100.00
80976;BME280;70437;49.466;11.002;2024-01-16T00:27:54;97317.09;;;-0.41;100.00
80976;BME280;70437;49.466;11.002;2024-01-16T00:30:24;97317.72;;;-0.62;100.00
80976;BME280;70437;49.466;11.002;2024-01-16T00:32:53;97337.66;;;-0.45;100.00
80976;BME280;70437;49.466;11.002;2024-01-16T00:35:24;97334.06;;;-0.44;100.00
80976;BME280;70437;49.466;11.002;2024-01-16T00:37:53;97337.16;;;-0.40;100.00
80976;BME280;70437;49.466;11.002;2024-01-16T00:40:22;97340.91;;;-0.35;100.00
80976;BME280;70437;49.466;11.002;2024-01-16T00:42:51;97344.44;;;-0.51;100.00
80976;BME280;70437;49.466;11.002;2024-01-16T00:45:20;97347.75;;;-0.48;100.00
80976;BME280;70437;49.466;11.002;2024-01-16T00:47:51;97354.94;;;-0.42;100.00
80976;BME280;70437;49.466;11.002;2024-01-16T00:50:20;97360.00;;;-0.41;100.00
80976;BME280;70437;49.466;11.002;2024-01-16T00:52:49;97363.69;;;-0.50;100.00
80976;BME280;70437;49.466;11.002;2024-01-16T00:55:18;97344.47;;;-0.59;100.00
80976;BME280;70437;49.466;11.002;2024-01-16T00:57:48;97336.97;;;-0.62;100.00
80976;BME280;70437;49.466;11.002;2024-01-16T01:00:18;97343.94;;;-0.46;100.00
80976;BME280;70437;49.466;11.002;2024-01-16T01:02:47;97340.81;;;-0.49;100.00
80976;BME280;70437;49.466;11.002;2024-01-16T01:05:17;97350.53;;;-0.50;100.00
80976;BME280;70437;49.466;11.002;2024-01-16T01:07:46;97362.34;;;-0.46;100.00
80976;BME280;70437;49.466;11.002;2024-01-16T01:10:15;97350.41;;;-0.57;100.00
80976;BME280;70437;49.466;11.002;2024-01-16T01:12:44;97356.22;;;-0.38;100.00
80976;BME280;70437;49.466;11.002;2024-01-16T01:15:12;97364.38;;;-0.25;100.00
80976;BME280;70437;49.466;11.002;2024-01-16T01:17:42;97361.06;;;-0.50;100.00
80976;BME280;70437;49.466;11.002;2024-01-16T01:20:12;97373.34;;;-0.42;100.00
80976;BME280;70437;49.466;11.002;2024-01-16T01:22:43;97369.31;;;-0.53;100.00
80976;BME280;70437;49.466;11.002;2024-01-16T01:25:13;97364.69;;;-0.51;100.00
80976;BME280;70437;49.466;11.002;2024-01-16T01:27:41;97380.94;;;-0.47;100.00
80976;BME280;70437;49.466;11.002;2024-01-16T01:30:11;97394.63;;;-0.52;100.00
80976;BME280;70437;49.466;11.002;2024-01-16T01:32:40;97386.00;;;-0.38;100.00
80976;BME280;70437;49.466;11.002;2024-01-16T01:35:09;97396.84;;;-0.41;100.00
80976;BME280;70437;49.466;11.002;2024-01-16T01:37:39;97403.00;;;-0.48;100.00
80976;BME280;70437;49.466;11.002;2024-01-16T01:40:10;97395.50;;;-0.29;100.00
80976;BME280;70437;49.466;11.002;2024-01-16T01:42:40;97399.50;;;-0.41;100.00
80976;BME280;70437;49.466;11.002;2024-01-16T01:45:10;97380.09;;;-0.40;100.00
80976;BME280;70437;49.466;11.002;2024-01-16T01:47:39;97396.25;;;-0.51;100.00
80976;BME280;70437;49.466;11.002;2024-01-16T01:50:10;97397.09;;;-0.59;100.00
80976;BME280;70437;49.466;11.002;2024-01-16T01:52:40;97399.22;;;-0.54;100.00
80976;BME280;70437;49.466;11.002;2024-01-16T01:55:12;97410.69;;;-0.39;100.00
80976;BME280;70437;49.466;11.002;2024-01-16T01:57:42;97408.19;;;-0.40;100.00
80976;BME280;70437;49.466;11.002;2024-01-16T02:00:13;97408.16;;;-0.63;100.00
80976;BME280;70437;49.466;11.002;2024-01-16T02:02:46;97419.31;;;-0.53;100.00
80976;BME280;70437;49.466;11.002;2024-01-16T02:05:15;97415.19;;;-0.56;100.00
80976;BME280;70437;49.466;11.002;2024-01-16T02:07:45;97423.53;;;-0.44;100.00
80976;BME280;70437;49.466;11.002;2024-01-16T02:10:17;97423.84;;;-0.39;100.00
80976;BME280;70437;49.466;11.002;2024-01-16T02:12:47;97424.66;;;-0.38;100.00
80976;BME280;70437;49.466;11.002;2024-01-16T02:15:16;97431.44;;;-0.44;100.00
80976;BME280;70437;49.466;11.002;2024-01-16T02:17:47;97410.03;;;-0.80;100.00
80976;BME280;70437;49.466;11.002;2024-01-16T02:20:17;97413.25;;;-0.62;100.00
80976;BME280;70437;49.466;11.002;2024-01-16T02:22:48;97435.88;;;-0.44;100.00
80976;BME280;70437;49.466;11.002;2024-01-16T02:25:21;97435.09;;;-0.53;100.00
80976;BME280;70437;49.466;11.002;2024-01-16T02:27:51;97431.19;;;-0.65;100.00
80976;BME280;70437;49.466;11.002;2024-01-16T02:30:20;97436.13;;;-0.70;100.00
80976;BME280;70437;49.466;11.002;2024-01-16T02:32:49;97437.44;;;-0.66;100.00
80976;BME280;70437;49.466;11.002;2024-01-16T02:35:19;97441.09;;;-0.75;100.00
80976;BME280;70437;49.466;11.002;2024-01-16T02:37:48;97427.59;;;-0.81;100.00
80976;BME280;70437;49.466;11.002;2024-01-16T02:40:18;97414.44;;;-0.72;100.00
80976;BME280;70437;49.466;11.002;2024-01-16T02:42:49;97434.28;;;-0.54;100.00
80976;BME280;70437;49.466;11.002;2024-01-16T02:45:18;97448.19;;;-0.45;100.00
80976;BME280;70437;49.466;11.002;2024-01-16T02:47:46;97453.22;;;-0.66;100.00
80976;BME280;70437;49.466;11.002;2024-01-16T02:50:15;97446.78;;;-0.64;100.00
80976;BME280;70437;49.466;11.002;2024-01-16T02:52:44;97458.50;;;-0.66;100.00
80976;BME280;70437;49.466;11.002;2024-01-16T02:55:13;97448.59;;;-0.64;100.00
80976;BME280;70437;49.466;11.002;2024-01-16T02:57:42;97460.75;;;-0.63;100.00
80976;BME280;70437;49.466;11.002;2024-01-16T03:00:13;97454.97;;;-0.51;100.00
80976;BME280;70437;49.466;11.002;2024-01-16T03:02:42;97446.59;;;-0.54;100.00
80976;BME280;70437;49.466;11.002;2024-01-16T03:05:12;97460.91;;;-0.48;100.00
80976;BME280;70437;49.466;11.002;2024-01-16T03:07:41;97455.00;;;-0.59;100.00
80976;BME280;70437;49.466;11.002;2024-01-16T03:10:10;97458.63;;;-0.60;100.00
80976;BME280;70437;49.466;11.002;2024-01-16T03:12:39;97459.75;;;-0.54;100.00
80976;BME280;70437;49.466;11.002;2024-01-16T03:15:08;97465.00;;;-0.54;100.00
80976;BME280;70437;49.466;11.002;2024-01-16T03:17:39;97470.97;;;-0.60;100.00
80976;BME280;70437;49.466;11.002;2024-01-16T03:20:09;97462.66;;;-0.41;100.00
80976;BME280;70437;49.466;11.002;2024-01-16T03:22:39;97470.44;;;-0.56;100.00
80976;BME280;70437;49.466;11.002;2024-01-16T03:25:08;97468.00;;;-0.57;100.00
80976;BME280;70437;49.466;11.002;2024-01-16T03:27:39;97470.97;;;-0.60;100.00
80976;BME280;70437;49.466;11.002;2024-01-16T03:30:08;97473.59;;;-0.60;100.00
80976;BME280;70437;49.466;11.002;2024-01-16T03:32:39;97482.63;;;-0.55;100.00
80976;BME280;70437;49.466;11.002;2024-01-16T03:35:08;97455.03;;;-0.67;100.00
80976;BME280;70437;49.466;11.002;2024-01-16T03:37:37;97472.97;;;-0.70;100.00
80976;BME280;70437;49.466;11.002;2024-01-16T03:40:08;97478.66;;;-0.51;100.00
80976;BME280;70437;49.466;11.002;2024-01-16T03:42:37;97477.50;;;-0.48;100.00
80976;BME280;70437;49.466;11.002;2024-01-16T03:45:07;97478.53;;;-0.57;100.00
80976;BME280;70437;49.466;11.002;2024-01-16T03:47:36;97471.13;;;-0.54;100.00
80976;BME280;70437;49.466;11.002;2024-01-16T03:50:08;97472.31;;;-0.72;100.00
80976;BME280;70437;49.466;11.002;2024-01-16T03:52:37;97472.94;;;-0.62;100.00
80976;BME280;70437;49.466;11.002;2024-01-16T03:55:08;97461.66;;;-0.79;100.00
80976;BME280;70437;49.466;11.002;2024-01-16T03:57:40;97475.59;;;-0.70;100.00
80976;BME280;70437;49.466;11.002;2024-01-16T04:00:11;97461.16;;;-0.83;100.00
80976;BME280;70437;49.466;11.002;2024-01-16T04:02:41;97465.69;;;-0.60;100.00
80976;BME280;70437;49.466;11.002;2024-01-16T04:05:12;97458.44;;;-0.58;100.00
80976;BME280;70437;49.466;11.002;2024-01-16T04:07:41;97461.47;;;-0.78;100.00
80976;BME280;70437;49.466;11.002;2024-01-16T04:10:10;97472.91;;;-0.54;100.00
80976;BME280;70437;49.466;11.002;2024-01-16T04:12:38;97461.97;;;-0.82;100.00
80976;BME280;70437;49.466;11.002;2024-01-16T04:15:08;97462.47;;;-0.79;100.00
80976;BME280;70437;49.466;11.002;2024-01-16T04:17:36;97465.72;;;-0.77;100.00
80976;BME280;70437;49.466;11.002;2024-01-16T04:20:06;97459.50;;;-0.75;100.00
80976;BME280;70437;49.466;11.002;2024-01-16T04:22:37;97469.66;;;-0.72;100.00
80976;BME280;70437;49.466;11.002;2024-01-16T04:25:06;97454.59;;;-1.03;100.00
80976;BME280;70437;49.466;11.002;2024-01-16T04:27:35;97451.44;;;-0.82;100.00
80976;BME280;70437;49.466;11.002;2024-01-16T04:30:05;97462.97;;;-0.83;100.00
80976;BME280;70437;49.466;11.002;2024-01-16T04:32:34;97465.06;;;-0.70;100.00
80976;BME280;70437;49.466;11.002;2024-01-16T04:35:04;97459.97;;;-0.72;100.00
80976;BME280;70437;49.466;11.002;2024-01-16T04:37:33;97457.53;;;-0.82;100.00
80976;BME280;70437;49.466;11.002;2024-01-16T04:40:03;97469.34;;;-0.78;100.00
80976;BME280;70437;49.466;11.002;2024-01-16T04:42:33;97468.34;;;-0.77;100.00
80976;BME280;70437;49.466;11.002;2024-01-16T04:45:02;97469.09;;;-1.07;100.00
80976;BME280;70437;49.466;11.002;2024-01-16T04:47:31;97476.13;;;-0.99;100.00
80976;BME280;70437;49.466;11.002;2024-01-16T04:50:00;97475.31;;;-1.00;100.00
80976;BME280;70437;49.466;11.002;2024-01-16T04:52:29;97472.19;;;-1.12;100.00
80976;BME280;70437;49.466;11.002;2024-01-16T04:54:58;97482.72;;;-1.04;100.00
80976;BME280;70437;49.466;11.002;2024-01-16T04:57:31;97484.34;;;-0.94;100.00
80976;BME280;70437;49.466;11.002;2024-01-16T05:00:00;97482.88;;;-0.89;100.00
80976;BME280;70437;49.466;11.002;2024-01-16T05:02:34;97491.28;;;-0.93;100.00
80976;BME280;70437;49.466;11.002;2024-01-16T05:05:05;97488.06;;;-0.64;100.00
80976;BME280;70437;49.466;11.002;2024-01-16T05:07:37;97487.28;;;-0.81;100.00
80976;BME280;70437;49.466;11.002;2024-01-16T05:10:10;97487.13;;;-0.71;100.00
80976;BME280;70437;49.466;11.002;2024-01-16T05:12:42;97479.75;;;-0.84;100.00
80976;BME280;70437;49.466;11.002;2024-01-16T05:15:11;97484.59;;;-0.57;100.00
80976;BME280;70437;49.466;11.002;2024-01-16T05:17:40;97480.56;;;-1.00;100.00
80976;BME280;70437;49.466;11.002;2024-01-16T05:20:09;97477.13;;;-0.92;100.00
80976;BME280;70437;49.466;11.002;2024-01-16T05:22:38;97470.88;;;-0.99;100.00
80976;BME280;70437;49.466;11.002;2024-01-16T05:25:08;97468.75;;;-1.04;100.00
80976;BME280;70437;49.466;11.002;2024-01-16T05:27:37;97480.41;;;-0.90;100.00
80976;BME280;70437;49.466;11.002;2024-01-16T05:30:08;97473.50;;;-0.91;100.00
80976;BME280;70437;49.466;11.002;2024-01-16T05:32:38;97473.38;;;-1.06;100.00
80976;BME280;70437;49.466;11.002;2024-01-16T05:35:10;97458.88;;;-0.94;100.00
80976;BME280;70437;49.466;11.002;2024-01-16T05:37:39;97465.94;;;-0.94;100.00
80976;BME280;70437;49.466;11.002;2024-01-16T05:40:09;97474.69;;;-1.02;100.00
80976;BME280;70437;49.466;11.002;2024-01-16T05:42:38;97476.94;;;-0.99;100.00
80976;BME280;70437;49.466;11.002;2024-01-16T05:45:09;97465.47;;;-1.06;100.00
80976;BME280;70437;49.466;11.002;2024-01-16T05:47:38;97462.03;;;-1.15;100.00
80976;BME280;70437;49.466;11.002;2024-01-16T05:50:09;97461.84;;;-1.13;100.00
80976;BME280;70437;49.466;11.002;2024-01-16T05:52:38;97473.88;;;-1.35;100.00
80976;BME280;70437;49.466;11.002;2024-01-16T05:55:10;97456.97;;;-1.33;100.00
80976;BME280;70437;49.466;11.002;2024-01-16T05:57:39;97468.59;;;-1.35;100.00
80976;BME280;70437;49.466;11.002;2024-01-16T06:00:11;97463.34;;;-1.27;100.00
80976;BME280;70437;49.466;11.002;2024-01-16T06:02:43;97464.97;;;-1.26;100.00
80976;BME280;70437;49.466;11.002;2024-01-16T06:05:13;97467.63;;;-1.26;100.00
80976;BME280;70437;49.466;11.002;2024-01-16T06:07:42;97461.41;;;-1.33;100.00
80976;BME280;70437;49.466;11.002;2024-01-16T06:10:11;97469.09;;;-1.40;100.00
80976;BME280;70437;49.466;11.002;2024-01-16T06:12:41;97480.25;;;-1.30;100.00
80976;BME280;70437;49.466;11.002;2024-01-16T06:15:13;97482.75;;;-1.28;100.00
80976;BME280;70437;49.466;11.002;2024-01-16T06:17:42;97495.22;;;-1.14;100.00
80976;BME280;70437;49.466;11.002;2024-01-16T06:20:12;97496.03;;;-1.21;100.00
80976;BME280;70437;49.466;11.002;2024-01-16T06:22:42;97491.78;;;-1.22;100.00
80976;BME280;70437;49.466;11.002;2024-01-16T06:25:11;97495.84;;;-1.12;100.00
80976;BME280;70437;49.466;11.002;2024-01-16T06:27:40;97495.22;;;-0.97;100.00
80976;BME280;70437;49.466;11.002;2024-01-16T06:30:12;97497.53;;;-1.03;100.00
80976;BME280;70437;49.466;11.002;2024-01-16T06:32:41;97486.34;;;-1.21;100.00
80976;BME280;70437;49.466;11.002;2024-01-16T06:35:12;97490.78;;;-1.13;100.00
80976;BME280;70437;49.466;11.002;2024-01-16T06:37:42;97494.06;;;-1.11;100.00
80976;BME280;70437;49.466;11.002;2024-01-16T06:40:12;97494.53;;;-1.08;100.00
80976;BME280;70437;49.466;11.002;2024-01-16T06:42:41;97489.13;;;-1.06;100.00
80976;BME280;70437;49.466;11.002;2024-01-16T06:45:12;97495.03;;;-1.12;100.00
80976;BME280;70437;49.466;11.002;2024-01-16T06:47:47;97491.78;;;-1.14;100.00
80976;BME280;70437;49.466;11.002;2024-01-16T06:50:18;97494.97;;;-0.63;100.00
80976;BME280;70437;49.466;11.002;2024-01-16T06:52:48;97492.22;;;-0.94;100.00
80976;BME280;70437;49.466;11.002;2024-01-16T06:55:19;97503.44;;;-1.00;100.00
80976;BME280;70437;49.466;11.002;2024-01-16T06:57:47;97500.59;;;-0.74;100.00
80976;BME280;70437;49.466;11.002;2024-01-16T07:00:19;97506.94;;;-0.44;100.00
80976;BME280;70437;49.466;11.002;2024-01-16T07:02:52;97504.41;;;-0.30;100.00
80976;BME280;70437;49.466;11.002;2024-01-16T07:05:21;97487.25;;;0.68;100.00
80976;BME280;70437;49.466;11.002;2024-01-16T07:07:53;97490.09;;;0.35;100.00
80976;BME280;70437;49.466;11.002;2024-01-16T07:10:22;97498.06;;;0.27;100.00
80976;BME280;70437;49.466;11.002;2024-01-16T07:12:51;97497.84;;;0.06;100.00
80976;BME280;70437;49.466;11.002;2024-01-16T07:15:22;97495.84;;;-0.32;100.00
80976;BME280;70437;49.466;11.002;2024-01-16T07:17:50;97495.84;;;-1.04;100.00
80976;BME280;70437;49.466;11.002;2024-01-16T07:20:19;97491.78;;;-1.06;100.00
80976;BME280;70437;49.466;11.002;2024-01-16T07:22:51;97506.56;;;-0.97;100.00
80976;BME280;70437;49.466;11.002;2024-01-16T07:25:21;97504.00;;;-0.10;100.00
80976;BME280;70437;49.466;11.002;2024-01-16T07:27:54;97498.25;;;-0.53;100.00
80976;BME280;70437;49.466;11.002;2024-01-16T07:30:27;97500.94;;;-0.78;100.00
80976;BME280;70437;49.466;11.002;2024-01-16T07:32:56;97505.69;;;-0.81;100.00
80976;BME280;70437;49.466;11.002;2024-01-16T07:35:25;97505.84;;;-0.74;100.00
80976;BME280;70437;49.466;11.002;2024-01-16T07:37:54;97509.13;;;-0.72;100.00
80976;BME280;70437;49.466;11.002;2024-01-16T07:40:23;97501.41;;;-0.74;100.00
80976;BME280;70437;49.466;11.002;2024-01-16T07:42:54;97499.28;;;-0.79;100.00
80976;BME280;70437;49.466;11.002;2024-01-16T07:45:23;97507.16;;;-0.62;100.00
80976;BME280;70437;49.466;11.002;2024-01-16T07:47:54;97528.22;;;-0.62;100.00
80976;BME280;70437;49.466;11.002;2024-01-16T07:50:26;97526.84;;;-0.58;100.00
80976;BME280;70437;49.466;11.002;2024-01-16T07:52:56;97530.47;;;-0.59;100.00
80976;BME280;70437;49.466;11.002;2024-01-16T07:55:25;97527.19;;;-0.53;100.00
80976;BME280;70437;49.466;11.002;2024-01-16T07:57:58;97533.09;;;-0.51;100.00
80976;BME280;70437;49.466;11.002;2024-01-16T08:00:27;97532.78;;;-0.48;100.00
80976;BME280;70437;49.466;11.002;2024-01-16T08:03:00;97518.16;;;-0.59;100.00
80976;BME280;70437;49.466;11.002;2024-01-16T08:05:29;97533.47;;;-0.70;100.00
80976;BME280;70437;49.466;11.002;2024-01-16T08:08:02;97536.94;;;-0.78;100.00
80976;BME280;70437;49.466;11.002;2024-01-16T08:10:31;97537.56;;;-0.60;100.00
80976;BME280;70437;49.466;11.002;2024-01-16T08:13:03;97531.34;;;-0.67;100.00
80976;BME280;70437;49.466;11.002;2024-01-16T08:15:34;97537.38;;;-0.50;100.00
80976;BME280;70437;49.466;11.002;2024-01-16T08:18:06;97537.72;;;-0.53;100.00
80976;BME280;70437;49.466;11.002;2024-01-16T08:20:50;97538.88;;;-0.56;100.00
80976;BME280;70437;49.466;11.002;2024-01-16T08:23:19;97547.78;;;-0.73;100.00
80976;BME280;70437;49.466;11.002;2024-01-16T08:25:51;97544.00;;;-0.70;100.00
80976;BME280;70437;49.466;11.002;2024-01-16T08:28:22;97548.22;;;-0.45;100.00
80976;BME280;70437;49.466;11.002;2024-01-16T08:30:53;97545.84;;;-0.23;100.00
80976;BME280;70437;49.466;11.002;2024-01-16T08:33:26;97543.50;;;-0.58;100.00
80976;BME280;70437;49.466;11.002;2024-01-16T08:36:09;97551.72;;;-0.69;100.00
80976;BME280;70437;49.466;11.002;2024-01-16T08:38:38;97544.31;;;-0.82;100.00
80976;BME280;70437;49.466;11.002;2024-01-16T08:41:08;97559.09;;;-0.56;100.00
80976;BME280;70437;49.466;11.002;2024-01-16T08:43:41;97550.72;;;-0.68;100.00
80976;BME280;70437;49.466;11.002;2024-01-16T08:46:11;97554.03;;;-0.66;100.00
80976;BME280;70437;49.466;11.002;2024-01-16T08:48:41;97553.81;;;-0.40;100.00
80976;BME280;70437;49.466;11.002;2024-01-16T08:51:11;97545.44;;;-0.43;100.00
80976;BME280;70437;49.466;11.002;2024-01-16T08:53:41;97532.38;;;-0.29;100.00
80976;BME280;70437;49.466;11.002;2024-01-16T08:56:11;97536.25;;;-0.08;100.00
80976;BME280;70437;49.466;11.002;2024-01-16T08:58:41;97553.78;;;0.08;100.00
80976;BME280;70437;49.466;11.002;2024-01-16T09:01:10;97543.28;;;-0.01;100.00
80976;BME280;70437;49.466;11.002;2024-01-16T09:03:42;97542.38;;;0.23;100.00
80976;BME280;70437;49.466;11.002;2024-01-16T09:06:12;97542.34;;;0.32;100.00
80976;BME280;70437;49.466;11.002;2024-01-16T09:08:42;97545.88;;;0.16;100.00
80976;BME280;70437;49.466;11.002;2024-01-16T09:11:13;97547.59;;;0.01;100.00
80976;BME280;70437;49.466;11.002;2024-01-16T09:13:43;97537.00;;;0.09;100.00
80976;BME280;70437;49.466;11.002;2024-01-16T09:16:12;97554.38;;;0.26;100.00
80976;BME280;70437;49.466;11.002;2024-01-16T09:18:46;97554.56;;;0.24;100.00
80976;BME280;70437;49.466;11.002;2024-01-16T09:21:17;97551.06;;;-0.07;100.00
80976;BME280;70437;49.466;11.002;2024-01-16T09:23:46;97555.28;;;0.10;100.00
80976;BME280;70437;49.466;11.002;2024-01-16T09:26:16;97560.13;;;0.30;100.00
80976;BME280;70437;49.466;11.002;2024-01-16T09:28:46;97557.03;;;0.18;100.00
80976;BME280;70437;49.466;11.002;2024-01-16T09:31:26;97570.06;;;-0.28;100.00
80976;BME280;70437;49.466;11.002;2024-01-16T09:34:01;97569.53;;;-0.23;100.00
80976;BME280;70437;49.466;11.002;2024-01-16T09:36:36;97564.53;;;-0.02;100.00
80976;BME280;70437;49.466;11.002;2024-01-16T09:39:06;97543.69;;;-0.20;100.00
80976;BME280;70437;49.466;11.002;2024-01-16T09:41:44;97563.47;;;-0.24;100.00
80976;BME280;70437;49.466;11.002;2024-01-16T09:44:14;97570.19;;;-0.13;100.00
80976;BME280;70437;49.466;11.002;2024-01-16T09:46:44;97556.69;;;0.21;100.00
80976;BME280;70437;49.466;11.002;2024-01-16T09:49:19;97570.94;;;0.04;100.00
80976;BME280;70437;49.466;11.002;2024-01-16T09:51:49;97564.78;;;0.19;100.00
80976;BME280;70437;49.466;11.002;2024-01-16T09:54:20;97568.31;;;0.35;100.00
80976;BME280;70437;49.466;11.002;2024-01-16T09:56:53;97558.69;;;0.19;100.00
80976;BME280;70437;49.466;11.002;2024-01-16T09:59:24;97573.50;;;0.51;100.00
80976;BME280;70437;49.466;11.002;2024-01-16T10:01:54;97575.19;;;0.13;100.00
80976;BME280;70437;49.466;11.002;2024-01-16T10:04:25;97567.47;;;0.03;100.00
80976;BME280;70437;49.466;11.002;2024-01-16T10:06:56;97580.44;;;0.13;100.00
80976;BME280;70437;49.466;11.002;2024-01-16T10:09:28;97581.53;;;-0.13;100.00
80976;BME280;70437;49.466;11.002;2024-01-16T10:11:58;97584.06;;;0.12;100.00
80976;BME280;70437;49.466;11.002;2024-01-16T10:14:28;97575.75;;;0.31;100.00
80976;BME280;70437;49.466;11.002;2024-01-16T10:16:58;97581.22;;;0.21;100.00
80976;BME280;70437;49.466;11.002;2024-01-16T10:19:35;97571.34;;;0.23;100.00
80976;BME280;70437;49.466;11.002;2024-01-16T10:22:20;97568.22;;;0.28;100.00
80976;BME280;70437;49.466;11.002;2024-01-16T10:25:04;97573.63;;;0.27;100.00
80976;BME280;70437;49.466;11.002;2024-01-16T10:27:35;97570.31;;;0.33;100.00
80976;BME280;70437;49.466;11.002;2024-01-16T10:30:07;97573.22;;;0.46;100.00
80976;BME280;70437;49.466;11.002;2024-01-16T10:32:47;97565.38;;;0.61;100.00
80976;BME280;70437;49.466;11.002;2024-01-16T10:35:21;97561.13;;;0.83;100.00
80976;BME280;70437;49.466;11.002;2024-01-16T10:37:52;97552.38;;;0.59;100.00
80976;BME280;70437;49.466;11.002;2024-01-16T10:40:24;97556.78;;;0.90;100.00
80976;BME280;70437;49.466;11.002;2024-01-16T10:42:59;97558.25;;;0.69;100.00
80976;BME280;70437;49.466;11.002;2024-01-16T10:45:32;97552.03;;;0.31;100.00
80976;BME280;70437;49.466;11.002;2024-01-16T10:48:07;97558.75;;;0.42;100.00
80976;BME280;70437;49.466;11.002;2024-01-16T10:50:55;97554.78;;;0.46;100.00
80976;BME280;70437;49.466;11.002;2024-01-16T10:53:25;97563.28;;;0.56;100.00
80976;BME280;70437;49.466;11.002;2024-01-16T10:55:57;97551.44;;;0.52;100.00
80976;BME280;70437;49.466;11.002;2024-01-16T10:58:28;97539.84;;;0.84;99.75
80976;BME280;70437;49.466;11.002;2024-01-16T11:01:26;97544.47;;;0.82;99.45
80976;BME280;70437;49.466;11.002;2024-01-16T11:04:23;97551.09;;;0.78;99.35
80976;BME280;70437;49.466;11.002;2024-01-16T11:07:28;97552.78;;;0.71;99.31
80976;BME280;70437;49.466;11.002;2024-01-16T11:09:59;97547.44;;;1.02;96.61
80976;BME280;70437;49.466;11.002;2024-01-16T11:12:30;97549.97;;;1.18;95.04
80976;BME280;70437;49.466;11.002;2024-01-16T11:15:06;97542.56;;;1.14;94.89
80976;BME280;70437;49.466;11.002;2024-01-16T11:17:44;97543.19;;;1.16;92.38
80976;BME280;70437;49.466;11.002;2024-01-16T11:20:14;97542.66;;;1.20;92.47
80976;BME280;70437;49.466;11.002;2024-01-16T11:23:06;97545.69;;;1.17;91.72
80976;BME280;70437;49.466;11.002;2024-01-16T11:25:37;97535.41;;;1.22;92.03
80976;BME280;70437;49.466;11.002;2024-01-16T11:28:08;97533.09;;;1.57;89.86
80976;BME280;70437;49.466;11.002;2024-01-16T11:30:41;97532.91;;;1.73;87.06
80976;BME280;70437;49.466;11.002;2024-01-16T11:33:42;97528.94;;;1.25;87.28
80976;BME280;70437;49.466;11.002;2024-01-16T11:36:48;97530.06;;;1.45;85.99
80976;BME280;70437;49.466;11.002;2024-01-16T11:39:26;97525.59;;;1.46;84.88
80976;BME280;70437;49.466;11.002;2024-01-16T11:41:58;97520.72;;;1.58;84.24
80976;BME280;70437;49.466;11.002;2024-01-16T11:44:42;97522.78;;;2.07;78.74
80976;BME280;70437;49.466;11.002;2024-01-16T11:47:24;97520.59;;;2.46;74.02
80976;BME280;70437;49.466;11.002;2024-01-16T11:50:28;97493.72;;;1.92;73.07
80976;BME280;70437;49.466;11.002;2024-01-16T11:53:00;97513.91;;;2.29;72.50
80976;BME280;70437;49.466;11.002;2024-01-16T11:55:34;97513.78;;;2.01;72.34
80976;BME280;70437;49.466;11.002;2024-01-16T11:58:27;97517.81;;;2.18;70.45
80976;BME280;70437;49.466;11.002;2024-01-16T12:01:06;97520.75;;;2.23;69.92
80976;BME280;70437;49.466;11.002;2024-01-16T12:03:46;97489.25;;;2.07;69.64
80976;BME280;70437;49.466;11.002;2024-01-16T12:06:18;97504.75;;;2.46;68.29
80976;BME280;70437;49.466;11.002;2024-01-16T12:08:50;97503.22;;;2.59;67.70
80976;BME280;70437;49.466;11.002;2024-01-16T12:12:02;97498.91;;;2.72;66.54
80976;BME280;70437;49.466;11.002;2024-01-16T12:15:16;97492.41;;;2.53;66.85
80976;BME280;70437;49.466;11.002;2024-01-16T12:17:56;97460.50;;;1.97;67.45
80976;BME280;70437;49.466;11.002;2024-01-16T12:20:30;97475.53;;;1.67;68.43
80976;BME280;70437;49.466;11.002;2024-01-16T12:23:15;97475.22;;;2.07;67.76
80976;BME280;70437;49.466;11.002;2024-01-16T12:26:32;97464.56;;;2.36;66.20
80976;BME280;70437;49.466;11.002;2024-01-16T12:36:35;97437.22;;;2.72;63.79
80976;BME280;70437;49.466;11.002;2024-01-16T12:40:02;97450.41;;;2.44;64.29
80976;BME280;70437;49.466;11.002;2024-01-16T12:43:03;97446.56;;;2.46;64.74
80976;BME280;70437;49.466;11.002;2024-01-16T12:46:20;97434.78;;;1.91;65.80
80976;BME280;70437;49.466;11.002;2024-01-16T12:49:16;97411.25;;;1.75;65.76
80976;BME280;70437;49.466;11.002;2024-01-16T12:52:14;97433.22;;;2.33;64.96
80976;BME280;70437;49.466;11.002;2024-01-16T12:54:47;97431.44;;;2.40;64.34
80976;BME280;70437;49.466;11.002;2024-01-16T12:57:36;97430.69;;;2.25;64.23
80976;BME280;70437;49.466;11.002;2024-01-16T13:00:23;97422.25;;;2.15;64.20
80976;BME280;70437;49.466;11.002;2024-01-16T13:02:54;97416.75;;;1.95;64.75
80976;BME280;70437;49.466;11.002;2024-01-16T13:05:27;97422.06;;;2.16;65.58
80976;BME280;70437;49.466;11.002;2024-01-16T13:08:04;97424.53;;;2.39;64.82
80976;BME280;70437;49.466;11.002;2024-01-16T13:10:35;97416.97;;;2.36;63.73
80976;BME280;70437;49.466;11.002;2024-01-16T13:13:13;97409.19;;;1.92;64.46
80976;BME280;70437;49.466;11.002;2024-01-16T13:15:44;97409.75;;;1.87;64.98
80976;BME280;70437;49.466;11.002;2024-01-16T13:18:18;97417.97;;;1.92;65.31
80976;BME280;70437;49.466;11.002;2024-01-16T13:20:50;97417.19;;;1.98;65.27